createdAt,value
2018-04-27T00:00:18.770Z,6.37
2018-04-27T00:02:47.239Z,5.90
2018-04-27T00:05:14.896Z,6.53
2018-04-27T00:07:42.593Z,6.60
2018-04-27T00:10:11.092Z,6.03
2018-04-27T00:12:39.861Z,5.00
2018-04-27T00:15:08.307Z,5.73
2018-04-27T00:17:36.001Z,6.80
2018-04-27T00:20:04.415Z,6.17
2018-04-27T00:22:32.066Z,8.10
2018-04-27T00:24:59.753Z,4.83
2018-04-27T00:27:27.408Z,6.17
2018-04-27T00:29:55.100Z,6.03
2018-04-27T00:32:22.770Z,5.80
2018-04-27T00:34:51.244Z,7.43
2018-04-27T00:37:18.892Z,4.40
2018-04-27T00:39:46.543Z,5.33
2018-04-27T00:42:14.240Z,5.53
2018-04-27T00:44:42.672Z,6.40
2018-04-27T00:47:10.353Z,5.07
2018-04-27T00:49:39.341Z,5.27
2018-04-27T00:52:07.725Z,6.80
2018-04-27T00:54:35.422Z,7.90
2018-04-27T00:57:03.848Z,5.20
2018-04-27T00:59:31.532Z,4.97
2018-04-27T01:01:59.190Z,8.07
2018-04-27T01:04:26.880Z,4.37
2018-04-27T01:06:55.332Z,7.03
2018-04-27T01:09:23.026Z,5.50
2018-04-27T01:11:51.447Z,4.90
2018-04-27T01:14:19.130Z,5.27
2018-04-27T01:16:46.770Z,5.27
2018-04-27T01:19:14.461Z,4.97
2018-04-27T01:21:42.165Z,6.47
2018-04-27T01:24:10.600Z,7.13
2018-04-27T01:26:38.287Z,6.07
2018-04-27T01:29:05.946Z,5.73
2018-04-27T01:31:33.630Z,6.43
2018-04-27T01:34:02.074Z,5.97
2018-04-27T01:36:29.773Z,4.60
2018-04-27T01:38:58.182Z,5.50
2018-04-27T01:41:25.866Z,5.77
2018-04-27T01:43:53.527Z,5.60
2018-04-27T01:46:21.224Z,5.83
2018-04-27T01:48:49.686Z,5.83
2018-04-27T01:51:17.379Z,6.83
2018-04-27T01:53:45.811Z,6.43
2018-04-27T01:56:13.498Z,5.90
2018-04-27T01:58:41.169Z,4.43
2018-04-27T02:01:10.269Z,5.27
2018-04-27T02:03:39.923Z,5.43
2018-04-27T02:06:08.555Z,6.73
2018-04-27T02:08:36.236Z,4.73
2018-04-27T02:11:04.652Z,4.30
2018-04-27T02:13:32.347Z,5.10
2018-04-27T02:16:00.015Z,6.93
2018-04-27T02:18:27.735Z,6.63
2018-04-27T02:20:55.399Z,7.97
2018-04-27T02:23:23.055Z,6.10
2018-04-27T02:25:50.738Z,7.50
2018-04-27T02:28:18.382Z,5.80
2018-04-27T02:30:46.067Z,6.73
2018-04-27T02:33:13.713Z,7.43
2018-04-27T02:35:41.400Z,6.13
2018-04-27T02:38:10.376Z,7.33
2018-04-27T02:40:39.700Z,4.67
2018-04-27T02:43:07.850Z,6.20
2018-04-27T02:45:35.511Z,5.60
2018-04-27T02:48:03.203Z,5.30
2018-04-27T02:50:31.639Z,5.83
2018-04-27T02:53:00.948Z,6.97
2018-04-27T02:55:28.608Z,5.90
2018-04-27T02:57:56.292Z,6.07
2018-04-27T03:00:23.975Z,5.53
2018-04-27T03:02:52.435Z,6.83
2018-04-27T03:05:20.126Z,5.27
2018-04-27T03:07:48.548Z,6.47
2018-04-27T03:10:16.249Z,5.70
2018-04-27T03:12:43.906Z,4.67
2018-04-27T03:15:11.587Z,6.27
2018-04-27T03:17:40.055Z,7.00
2018-04-27T03:20:07.779Z,4.50
2018-04-27T03:22:35.445Z,5.17
2018-04-27T03:25:03.133Z,5.80
2018-04-27T03:27:30.801Z,6.60
2018-04-27T03:29:58.482Z,7.00
2018-04-27T03:32:26.928Z,4.63
2018-04-27T03:34:54.611Z,6.50
2018-04-27T03:37:22.268Z,5.53
2018-04-27T03:39:49.975Z,4.80
2018-04-27T03:42:17.633Z,6.07
2018-04-27T03:44:45.286Z,6.30
2018-04-27T03:47:12.975Z,8.13
2018-04-27T03:49:40.636Z,5.33
2018-04-27T03:52:08.338Z,8.87
2018-04-27T03:54:36.009Z,5.37
2018-04-27T03:57:04.478Z,6.83
2018-04-27T03:59:44.048Z,7.00
2018-04-27T04:02:24.412Z,9.40
2018-04-27T04:05:04.051Z,6.73
2018-04-27T04:07:31.750Z,5.07
2018-04-27T04:09:59.457Z,6.90
2018-04-27T04:12:27.944Z,6.93
2018-04-27T04:14:56.403Z,6.00
2018-04-27T04:17:24.080Z,5.33
2018-04-27T04:19:51.768Z,6.63
2018-04-27T04:22:19.461Z,9.23
2018-04-27T04:24:47.147Z,6.17
2018-04-27T04:27:14.846Z,12.30
2018-04-27T04:29:43.275Z,6.20
2018-04-27T04:32:10.989Z,7.63
2018-04-27T04:34:39.795Z,11.53
2018-04-27T04:37:08.091Z,7.73
2018-04-27T04:39:35.750Z,7.27
2018-04-27T04:42:03.436Z,6.43
2018-04-27T04:44:31.096Z,9.43
2018-04-27T04:46:58.784Z,9.03
2018-04-27T04:49:27.215Z,8.27
2018-04-27T04:51:54.933Z,10.17
2018-04-27T04:54:23.365Z,10.50
2018-04-27T04:56:51.053Z,8.40
2018-04-27T04:59:18.740Z,9.37
2018-04-27T05:01:47.170Z,11.13
2018-04-27T05:04:14.965Z,9.50
2018-04-27T05:06:42.587Z,9.70
2018-04-27T05:09:10.290Z,11.87
2018-04-27T05:11:39.249Z,9.60
2018-04-27T05:14:06.940Z,11.90
2018-04-27T05:16:34.612Z,10.53
2018-04-27T05:19:03.985Z,13.73
2018-04-27T05:21:31.646Z,13.10
2018-04-27T05:23:59.340Z,10.67
2018-04-27T05:26:27.011Z,11.27
2018-04-27T05:28:55.487Z,10.90
2018-04-27T05:31:23.914Z,10.87
2018-04-27T05:33:51.629Z,13.30
2018-04-27T05:36:20.485Z,12.13
2018-04-27T05:38:48.142Z,12.23
2018-04-27T05:41:15.841Z,12.03
2018-04-27T05:43:44.291Z,12.40
2018-04-27T05:46:12.009Z,11.53
2018-04-27T05:48:39.692Z,11.70
2018-04-27T05:51:07.783Z,17.00
2018-04-27T05:53:35.552Z,15.17
2018-04-27T05:56:03.258Z,12.70
2018-04-27T05:58:31.707Z,13.27
2018-04-27T06:01:00.217Z,12.33
2018-04-27T06:03:40.587Z,12.67
2018-04-27T06:06:09.264Z,15.33
2018-04-27T06:08:38.748Z,13.00
2018-04-27T06:11:06.404Z,13.80
2018-04-27T06:13:34.095Z,14.53
2018-04-27T06:16:02.555Z,18.07
2018-04-27T06:18:31.021Z,15.40
2018-04-27T06:20:58.694Z,13.40
2018-04-27T06:23:27.163Z,17.30
2018-04-27T06:25:54.859Z,13.23
2018-04-27T06:28:23.281Z,13.63
2018-04-27T06:30:51.774Z,12.00
2018-04-27T06:33:19.443Z,16.40
2018-04-27T06:35:47.111Z,15.97
2018-04-27T06:38:14.816Z,16.30
2018-04-27T06:40:42.486Z,19.67
2018-04-27T06:43:10.183Z,13.77
2018-04-27T06:45:38.396Z,14.27
2018-04-27T06:48:06.902Z,17.13
2018-04-27T06:50:34.611Z,13.63
2018-04-27T06:53:02.308Z,13.00
2018-04-27T06:55:30.739Z,15.33
2018-04-27T06:57:58.448Z,13.97
2018-04-27T07:00:26.907Z,16.23
2018-04-27T07:02:54.590Z,15.10
2018-04-27T07:05:23.137Z,15.27
2018-04-27T07:07:50.783Z,13.40
2018-04-27T07:10:18.452Z,15.53
2018-04-27T07:12:46.146Z,16.43
2018-04-27T07:15:14.623Z,13.20
2018-04-27T07:17:43.069Z,14.20
2018-04-27T07:20:10.743Z,16.43
2018-04-27T07:22:38.849Z,15.70
2018-04-27T07:25:07.799Z,14.33
2018-04-27T07:27:35.499Z,14.40
2018-04-27T07:30:03.934Z,14.83
2018-04-27T07:32:31.651Z,12.63
2018-04-27T07:35:00.605Z,16.60
2018-04-27T07:37:28.399Z,14.23
2018-04-27T07:39:56.823Z,19.87
2018-04-27T07:42:24.514Z,16.80
2018-04-27T07:44:52.213Z,13.03
2018-04-27T07:47:20.640Z,15.87
2018-04-27T07:49:48.679Z,15.37
2018-04-27T07:52:19.171Z,14.33
2018-04-27T07:54:50.563Z,13.67
2018-04-27T07:57:28.000Z,13.90
2018-04-27T08:00:01.144Z,12.60
2018-04-27T08:02:33.634Z,13.63
2018-04-27T08:05:01.575Z,13.23
2018-04-27T08:07:29.296Z,15.67
2018-04-27T08:09:57.812Z,16.67
2018-04-27T08:12:25.531Z,16.97
2018-04-27T08:14:53.447Z,15.97
2018-04-27T08:17:21.149Z,18.93
2018-04-27T08:19:49.069Z,15.57
2018-04-27T08:22:17.721Z,16.70
2018-04-27T08:24:45.408Z,13.57
2018-04-27T08:27:13.967Z,13.93
2018-04-27T08:29:42.692Z,12.83
2018-04-27T08:32:10.396Z,12.67
2018-04-27T08:34:38.352Z,15.77
2018-04-27T08:37:06.492Z,12.03
2018-04-27T08:39:34.253Z,10.77
2018-04-27T08:42:01.973Z,14.93
2018-04-27T08:44:29.737Z,9.63
2018-04-27T08:46:57.468Z,11.07
2018-04-27T08:49:25.176Z,8.77
2018-04-27T08:51:52.927Z,10.87
2018-04-27T08:54:20.653Z,10.50
2018-04-27T08:56:48.334Z,11.63
2018-04-27T08:59:16.058Z,13.37
2018-04-27T09:01:44.517Z,8.27
2018-04-27T09:04:12.258Z,8.20
2018-04-27T09:06:40.938Z,9.07
2018-04-27T09:09:09.225Z,7.57
2018-04-27T09:11:36.955Z,9.63
2018-04-27T09:14:04.709Z,9.00
2018-04-27T09:16:32.412Z,7.80
2018-04-27T09:19:02.392Z,10.37
2018-04-27T09:21:30.132Z,9.03
2018-04-27T09:23:58.569Z,8.10
2018-04-27T09:26:26.276Z,8.07
2018-04-27T09:28:54.715Z,8.73
2018-04-27T09:31:22.430Z,8.87
2018-04-27T09:33:50.648Z,10.50
2018-04-27T09:36:18.894Z,9.10
2018-04-27T09:38:51.224Z,9.37
2018-04-27T09:41:25.449Z,10.03
2018-04-27T09:43:55.491Z,7.47
2018-04-27T09:46:27.037Z,9.00
2018-04-27T09:48:57.262Z,8.30
2018-04-27T09:51:25.355Z,9.40
2018-04-27T09:53:55.713Z,8.20
2018-04-27T09:58:58.175Z,12.17
2018-04-27T10:01:28.157Z,8.07
2018-04-27T10:03:56.888Z,10.80
2018-04-27T10:06:29.993Z,7.53
2018-04-27T10:09:04.827Z,6.73
2018-04-27T10:11:35.940Z,9.57
2018-04-27T10:14:07.780Z,7.17
2018-04-27T10:16:39.875Z,7.63
2018-04-27T10:19:12.651Z,10.77
2018-04-27T10:21:43.624Z,7.37
2018-04-27T10:24:13.135Z,8.80
2018-04-27T10:26:42.885Z,10.63
2018-04-27T10:29:12.148Z,9.40
2018-04-27T10:31:43.704Z,8.17
2018-04-27T10:34:13.606Z,6.57
2018-04-27T10:36:43.555Z,6.87
2018-04-27T10:39:13.693Z,7.23
2018-04-27T10:41:43.795Z,6.20
2018-04-27T10:44:16.107Z,6.40
2018-04-27T10:46:46.297Z,10.53
2018-04-27T10:49:17.931Z,5.43
2018-04-27T10:51:48.957Z,6.00
2018-04-27T10:54:19.839Z,6.00
2018-04-27T10:56:49.883Z,6.23
2018-04-27T10:59:22.357Z,7.73
2018-04-27T11:01:52.090Z,6.40
2018-04-27T11:04:24.359Z,4.10
2018-04-27T11:06:54.032Z,6.93
2018-04-27T11:09:24.582Z,7.77
2018-04-27T11:11:53.705Z,6.53
2018-04-27T11:14:24.504Z,8.20
2018-04-27T11:16:55.441Z,7.90
2018-04-27T11:19:23.309Z,6.80
2018-04-27T11:21:51.004Z,8.10
2018-04-27T11:24:19.281Z,9.63
2018-04-27T11:26:47.044Z,6.57
2018-04-27T11:29:15.502Z,7.07
2018-04-27T11:31:44.019Z,5.27
2018-04-27T11:34:11.711Z,3.53
2018-04-27T11:36:40.443Z,4.47
2018-04-27T11:39:13.668Z,8.03
2018-04-27T11:41:42.590Z,6.80
2018-04-27T11:44:14.933Z,8.13
2018-04-27T11:46:42.979Z,5.07
2018-04-27T11:49:11.443Z,7.13
2018-04-27T11:51:39.931Z,4.63
2018-04-27T11:54:08.837Z,3.80
2018-04-27T11:56:38.119Z,6.33
2018-04-27T11:59:06.558Z,8.57
2018-04-27T12:01:34.683Z,4.87
2018-04-27T12:04:03.171Z,6.30
2018-04-27T12:06:31.618Z,6.00
2018-04-27T12:08:59.319Z,5.67
2018-04-27T12:11:27.746Z,4.53
2018-04-27T12:13:55.465Z,4.17
2018-04-27T12:16:24.303Z,3.87
2018-04-27T12:18:51.974Z,7.87
2018-04-27T12:21:19.709Z,5.93
2018-04-27T12:23:47.379Z,7.17
2018-04-27T12:26:15.121Z,4.97
2018-04-27T12:28:42.821Z,6.20
2018-04-27T12:31:10.522Z,6.90
2018-04-27T12:33:39.184Z,7.50
2018-04-27T12:36:06.851Z,6.90
2018-04-27T12:38:35.333Z,6.63
2018-04-27T12:41:03.800Z,5.67
2018-04-27T12:43:31.454Z,5.97
2018-04-27T12:45:59.136Z,4.43
2018-04-27T12:48:27.563Z,3.83
2018-04-27T12:50:55.268Z,5.90
2018-04-27T12:53:22.927Z,7.27
2018-04-27T12:55:50.579Z,4.60
2018-04-27T12:58:18.301Z,3.13
2018-04-27T13:00:45.993Z,10.40
2018-04-27T13:03:13.687Z,6.20
2018-04-27T13:05:42.116Z,7.53
2018-04-27T13:08:09.828Z,3.43
2018-04-27T13:10:37.868Z,6.40
2018-04-27T13:13:05.564Z,5.97
2018-04-27T13:15:34.001Z,4.27
2018-04-27T13:18:01.693Z,2.93
2018-04-27T13:20:29.353Z,3.80
2018-04-27T13:22:57.054Z,6.03
2018-04-27T13:25:24.720Z,5.80
2018-04-27T13:27:52.389Z,4.40
2018-04-27T13:30:20.102Z,5.97
2018-04-27T13:32:47.804Z,8.37
2018-04-27T13:35:15.499Z,5.30
2018-04-27T13:37:43.181Z,5.70
2018-04-27T13:40:10.876Z,4.30
2018-04-27T13:42:40.043Z,6.33
2018-04-27T13:45:08.743Z,5.27
2018-04-27T13:47:36.424Z,4.27
2018-04-27T13:50:05.920Z,5.37
2018-04-27T13:52:34.344Z,4.53
2018-04-27T13:55:02.041Z,5.03
2018-04-27T13:57:29.744Z,4.70
2018-04-27T13:59:57.430Z,3.13
2018-04-27T14:02:25.210Z,4.30
2018-04-27T14:04:52.873Z,4.47
2018-04-27T14:07:20.575Z,4.63
2018-04-27T14:09:49.093Z,4.83
2018-04-27T14:12:17.540Z,4.47
2018-04-27T14:14:45.969Z,7.57
2018-04-27T14:17:13.666Z,5.47
2018-04-27T14:19:41.356Z,6.23
2018-04-27T14:22:09.968Z,3.87
2018-04-27T14:24:39.118Z,7.30
2018-04-27T14:27:07.971Z,4.20
2018-04-27T14:29:35.739Z,7.47
2018-04-27T14:32:03.409Z,4.87
2018-04-27T14:34:31.097Z,5.90
2018-04-27T14:36:59.524Z,3.23
2018-04-27T14:39:27.220Z,5.43
2018-04-27T14:41:54.919Z,4.93
2018-04-27T14:44:23.344Z,5.00
2018-04-27T14:46:51.040Z,7.57
2018-04-27T14:49:19.980Z,5.23
2018-04-27T14:51:47.841Z,3.57
2018-04-27T14:54:15.564Z,9.20
2018-04-27T14:56:44.052Z,4.87
2018-04-27T14:59:11.979Z,2.93
2018-04-27T15:01:40.585Z,5.60
2018-04-27T15:04:08.880Z,3.77
2018-04-27T15:06:37.935Z,3.97
2018-04-27T15:09:05.647Z,4.73
2018-04-27T15:11:33.505Z,5.73
2018-04-27T15:14:01.633Z,3.70
2018-04-27T15:16:29.631Z,4.80
2018-04-27T15:18:59.420Z,3.93
2018-04-27T15:21:27.136Z,4.53
2018-04-27T15:23:55.051Z,4.00
2018-04-27T15:26:22.790Z,4.57
2018-04-27T15:28:51.210Z,2.50
2018-04-27T15:31:18.994Z,5.80
2018-04-27T15:33:47.522Z,3.93
2018-04-27T15:36:15.207Z,4.33
2018-04-27T15:38:42.887Z,5.40
2018-04-27T15:41:10.587Z,4.20
2018-04-27T15:43:38.856Z,4.17
2018-04-27T15:46:06.658Z,6.17
2018-04-27T15:48:34.371Z,3.20
2018-04-27T15:51:02.839Z,4.63
2018-04-27T15:53:31.316Z,6.80
2018-04-27T15:55:59.761Z,6.73
2018-04-27T15:58:27.474Z,6.00
2018-04-27T16:00:56.977Z,6.43
2018-04-27T16:03:26.163Z,5.70
2018-04-27T16:05:54.601Z,6.17
2018-04-27T16:08:22.320Z,5.77
2018-04-27T16:10:51.767Z,5.67
2018-04-27T16:16:33.180Z,4.90
2018-04-27T16:19:04.453Z,9.67
2018-04-27T16:21:32.129Z,4.30
2018-04-27T16:24:00.618Z,2.77
2018-04-27T16:26:29.060Z,6.10
2018-04-27T16:28:56.782Z,5.97
2018-04-27T16:31:24.482Z,2.47
2018-04-27T16:33:53.060Z,5.17
2018-04-27T16:36:20.785Z,3.43
2018-04-27T16:38:48.492Z,6.73
2018-04-27T16:41:16.217Z,16.70
2018-04-27T16:43:43.889Z,8.73
2018-04-27T16:46:11.591Z,55.97
2018-04-27T16:48:39.913Z,17.37
2018-04-27T16:51:08.821Z,6.40
2018-04-27T16:53:37.931Z,5.67
2018-04-27T16:56:06.432Z,7.30
2018-04-27T16:58:34.142Z,2.67
2018-04-27T17:01:01.836Z,13.90
2018-04-27T17:03:29.506Z,9.03
2018-04-27T17:05:57.196Z,3.10
2018-04-27T17:08:25.669Z,2.83
2018-04-27T17:10:53.335Z,5.67
2018-04-27T17:13:21.822Z,8.83
2018-04-27T17:15:50.269Z,5.27
2018-04-27T17:18:17.998Z,3.53
2018-04-27T17:20:45.677Z,3.90
2018-04-27T17:23:13.404Z,14.30
2018-04-27T17:25:41.874Z,3.13
2018-04-27T17:28:10.443Z,6.87
2018-04-27T17:30:38.633Z,4.30
2018-04-27T17:33:07.170Z,5.77
2018-04-27T17:35:36.300Z,4.17
2018-04-27T17:38:04.741Z,3.40
2018-04-27T17:40:32.558Z,2.40
2018-04-27T17:43:01.015Z,2.77
2018-04-27T17:45:29.332Z,2.77
2018-04-27T17:47:57.030Z,2.27
2018-04-27T17:50:24.688Z,5.23
2018-04-27T17:52:52.415Z,1.60
2018-04-27T17:55:20.095Z,4.80
2018-04-27T17:57:47.794Z,4.53
2018-04-27T18:00:15.475Z,3.40
2018-04-27T18:02:43.954Z,2.40
2018-04-27T18:05:11.646Z,4.40
2018-04-27T18:07:40.560Z,2.23
2018-04-27T18:10:09.083Z,2.13
2018-04-27T18:12:36.802Z,4.10
2018-04-27T18:15:04.471Z,3.63
2018-04-27T18:17:32.168Z,4.27
2018-04-27T18:19:59.840Z,5.03
2018-04-27T18:22:27.545Z,4.00
2018-04-27T18:24:55.287Z,2.17
2018-04-27T18:27:22.984Z,2.87
2018-04-27T18:29:50.798Z,1.97
2018-04-27T18:32:18.422Z,3.40
2018-04-27T18:34:46.113Z,3.57
2018-04-27T18:37:13.778Z,3.47
2018-04-27T18:39:41.476Z,4.40
2018-04-27T18:42:09.641Z,6.90
2018-04-27T18:44:38.032Z,2.97
2018-04-27T18:47:06.472Z,3.50
2018-04-27T18:49:34.140Z,4.80
2018-04-27T18:52:02.604Z,3.80
2018-04-27T18:54:30.368Z,5.00
2018-04-27T18:56:58.037Z,3.17
2018-04-27T18:59:25.707Z,4.47
2018-04-27T19:01:54.175Z,3.80
2018-04-27T19:04:21.858Z,4.73
2018-04-27T19:06:50.324Z,3.37
2018-04-27T19:09:17.989Z,3.77
2018-04-27T19:11:45.675Z,2.43
2018-04-27T19:14:13.351Z,3.03
2018-04-27T19:16:42.270Z,3.77
2018-04-27T19:19:10.840Z,6.53
2018-04-27T19:21:38.551Z,2.80
2018-04-27T19:24:06.987Z,5.87
2018-04-27T19:26:34.689Z,12.87
2018-04-27T19:29:02.339Z,5.97
2018-04-27T19:31:30.026Z,3.73
2018-04-27T19:33:58.498Z,4.77
2018-04-27T19:36:27.209Z,4.23
2018-04-27T19:38:54.931Z,4.57
2018-04-27T19:41:22.591Z,4.67
2018-04-27T19:43:50.246Z,4.17
2018-04-27T19:46:17.971Z,4.97
2018-04-27T19:48:45.664Z,6.33
2018-04-27T19:51:13.316Z,6.17
2018-04-27T19:53:41.027Z,6.30
2018-04-27T19:56:10.036Z,4.93
2018-04-27T19:58:38.363Z,4.30
2018-04-27T20:01:06.018Z,4.83
2018-04-27T20:03:33.741Z,5.93
2018-04-27T20:06:02.354Z,4.20
2018-04-27T20:08:32.682Z,5.33
2018-04-27T20:11:01.106Z,8.40
2018-04-27T20:13:29.545Z,4.00
2018-04-27T20:15:58.028Z,7.47
2018-04-27T20:18:30.126Z,4.90
2018-04-27T20:21:00.214Z,5.87
2018-04-27T20:23:31.286Z,6.13
2018-04-27T20:25:59.775Z,8.43
2018-04-27T20:28:31.745Z,8.60
2018-04-27T20:31:00.216Z,5.13
2018-04-27T20:33:28.745Z,12.33
2018-04-27T20:35:57.247Z,5.87
2018-04-27T20:38:30.474Z,5.33
2018-04-27T20:41:10.265Z,6.77
2018-04-27T20:43:39.094Z,5.17
2018-04-27T20:46:06.755Z,5.77
2018-04-27T20:48:34.442Z,9.17
2018-04-27T20:51:02.952Z,5.30
2018-04-27T20:53:32.993Z,6.90
2018-04-27T20:56:02.371Z,3.77
2018-04-27T20:58:30.063Z,5.23
2018-04-27T21:00:58.571Z,8.07
2018-04-27T21:03:27.040Z,8.47
2018-04-27T21:05:54.695Z,4.97
2018-04-27T21:08:22.376Z,5.37
2018-04-27T21:10:50.809Z,5.43
2018-04-27T21:13:18.501Z,4.37
2018-04-27T21:15:46.167Z,4.40
2018-04-27T21:18:17.581Z,7.40
2018-04-27T21:20:45.236Z,7.20
2018-04-27T21:23:12.942Z,8.90
2018-04-27T21:25:40.603Z,6.83
2018-04-27T21:31:10.071Z,8.90
2018-04-27T21:33:39.615Z,8.53
2018-04-27T21:36:07.949Z,9.13
2018-04-27T21:38:49.623Z,7.93
2018-04-27T21:44:24.127Z,7.50
2018-04-27T21:46:54.575Z,4.60
2018-04-27T21:49:25.816Z,5.17
2018-04-27T21:51:54.985Z,5.83
2018-04-27T21:54:22.682Z,6.93
2018-04-27T21:56:54.622Z,5.60
2018-04-27T21:59:25.173Z,6.53
2018-04-27T22:01:53.604Z,5.83
2018-04-27T22:04:21.315Z,11.03
2018-04-27T22:06:49.784Z,9.57
2018-04-27T22:09:17.443Z,10.73
2018-04-27T22:11:49.816Z,7.43
2018-04-27T22:14:25.137Z,6.20
2018-04-27T22:17:02.813Z,7.33
2018-04-27T22:19:31.267Z,6.73
2018-04-27T22:22:00.131Z,8.87
2018-04-27T22:24:28.554Z,5.57
2018-04-27T22:27:00.793Z,7.73
2018-04-27T22:29:30.494Z,6.80
2018-04-27T22:32:02.575Z,5.47
2018-04-27T22:35:00.756Z,6.17
2018-04-27T22:37:33.273Z,6.20
2018-04-27T22:40:09.815Z,9.17
2018-04-27T22:45:35.565Z,5.97
2018-04-27T22:48:22.936Z,9.23
2018-04-27T22:53:59.840Z,6.47
2018-04-27T22:59:30.800Z,6.20
2018-04-27T23:02:14.891Z,5.03
2018-04-27T23:04:42.572Z,10.83
2018-04-27T23:07:12.159Z,7.07
2018-04-27T23:09:39.879Z,7.83
2018-04-27T23:12:08.325Z,10.90
2018-04-27T23:14:37.467Z,8.73
2018-04-27T23:17:13.804Z,9.23
2018-04-27T23:19:49.382Z,6.50
2018-04-27T23:22:29.653Z,6.60
2018-04-27T23:25:03.958Z,9.60
2018-04-27T23:27:34.267Z,8.43
2018-04-27T23:30:02.717Z,7.93
2018-04-27T23:32:30.420Z,10.63
2018-04-27T23:34:59.617Z,6.87
2018-04-27T23:37:28.074Z,5.53
2018-04-27T23:39:55.763Z,6.10
2018-04-27T23:42:24.184Z,9.50
2018-04-27T23:44:51.880Z,10.57
2018-04-27T23:47:19.567Z,6.87
2018-04-27T23:49:48.017Z,9.43
2018-04-27T23:52:15.672Z,7.30
2018-04-27T23:54:43.366Z,5.93
2018-04-27T23:57:13.724Z,6.10
2018-04-27T23:59:42.994Z,10.37
